createdAt,value
2019-02-16T00:00:05.121Z,7.58
2019-02-16T00:01:05.138Z,7.66
2019-02-16T00:02:05.156Z,7.56
2019-02-16T00:03:05.173Z,7.54
2019-02-16T00:04:05.185Z,7.45
2019-02-16T00:05:05.208Z,7.43
2019-02-16T00:06:05.218Z,7.39
2019-02-16T00:07:05.235Z,7.21
2019-02-16T00:08:05.256Z,7.17
2019-02-16T00:09:05.273Z,7.07
2019-02-16T00:10:05.284Z,7.07
2019-02-16T00:11:05.298Z,6.99
2019-02-16T00:12:05.316Z,6.99
2019-02-16T00:13:05.330Z,6.97
2019-02-16T00:14:05.355Z,6.96
2019-02-16T00:15:05.361Z,6.96
2019-02-16T00:16:05.386Z,7.02
2019-02-16T00:17:05.394Z,7.03
2019-02-16T00:18:05.416Z,6.99
2019-02-16T00:19:05.436Z,7.02
2019-02-16T00:20:05.443Z,6.99
2019-02-16T00:21:05.465Z,6.95
2019-02-16T00:22:05.481Z,6.99
2019-02-16T00:23:05.748Z,7.02
2019-02-16T00:24:05.507Z,7.10
2019-02-16T00:25:05.528Z,7.18
2019-02-16T00:26:05.544Z,7.40
2019-02-16T00:27:05.560Z,7.54
2019-02-16T00:28:05.572Z,7.76
2019-02-16T00:29:05.587Z,7.77
2019-02-16T00:30:05.602Z,7.91
2019-02-16T00:31:05.620Z,7.95
2019-02-16T00:32:05.634Z,7.95
2019-02-16T00:33:05.652Z,7.94
2019-02-16T00:34:05.667Z,7.95
2019-02-16T00:35:05.688Z,7.95
2019-02-16T00:36:05.697Z,7.95
2019-02-16T00:37:05.710Z,7.80
2019-02-16T00:38:05.728Z,7.76
2019-02-16T00:39:05.743Z,7.76
2019-02-16T00:40:05.758Z,7.63
2019-02-16T00:41:05.778Z,7.67
2019-02-16T00:42:05.792Z,7.60
2019-02-16T00:43:05.808Z,7.51
2019-02-16T00:44:05.823Z,7.39
2019-02-16T00:45:05.839Z,7.28
2019-02-16T00:46:05.854Z,7.18
2019-02-16T00:47:05.876Z,7.10
2019-02-16T00:48:05.887Z,7.06
2019-02-16T00:49:05.900Z,6.93
2019-02-16T00:50:05.916Z,7.06
2019-02-16T00:51:13.192Z,7.20
2019-02-16T00:52:05.956Z,7.29
2019-02-16T00:53:05.964Z,7.40
2019-02-16T00:54:05.986Z,7.47
2019-02-16T00:55:05.998Z,7.51
2019-02-16T00:56:06.014Z,7.39
2019-02-16T00:57:06.027Z,7.39
2019-02-16T00:58:06.044Z,7.40
2019-02-16T00:59:06.059Z,7.47
2019-02-16T01:00:06.077Z,7.45
2019-02-16T01:01:06.089Z,7.42
2019-02-16T01:02:06.105Z,7.38
2019-02-16T01:03:06.126Z,7.39
2019-02-16T01:04:06.141Z,7.31
2019-02-16T01:05:06.154Z,7.21
2019-02-16T01:06:06.170Z,7.17
2019-02-16T01:07:06.188Z,7.14
2019-02-16T01:08:06.200Z,7.11
2019-02-16T01:09:06.215Z,7.23
2019-02-16T01:10:06.234Z,7.21
2019-02-16T01:11:06.249Z,7.23
2019-02-16T01:12:06.269Z,7.17
2019-02-16T01:13:06.282Z,7.18
2019-02-16T01:14:06.294Z,7.21
2019-02-16T01:15:06.309Z,7.28
2019-02-16T01:16:06.325Z,7.28
2019-02-16T01:17:06.342Z,7.21
2019-02-16T01:18:06.358Z,7.23
2019-02-16T01:19:06.380Z,7.21
2019-02-16T01:20:06.390Z,7.15
2019-02-16T01:21:06.406Z,7.21
2019-02-16T01:22:06.426Z,7.28
2019-02-16T01:23:06.442Z,7.31
2019-02-16T01:24:06.459Z,7.14
2019-02-16T01:25:06.465Z,6.96
2019-02-16T01:26:06.479Z,6.89
2019-02-16T01:27:06.499Z,6.74
2019-02-16T01:28:06.514Z,6.64
2019-02-16T01:29:06.529Z,6.64
2019-02-16T01:30:06.543Z,6.48
2019-02-16T01:31:06.583Z,6.46
2019-02-16T01:32:06.593Z,6.45
2019-02-16T01:33:06.604Z,6.38
2019-02-16T01:34:06.625Z,6.35
2019-02-16T01:35:06.640Z,6.38
2019-02-16T01:36:06.653Z,6.44
2019-02-16T01:37:06.670Z,6.51
2019-02-16T01:38:06.686Z,6.49
2019-02-16T01:39:06.700Z,6.52
2019-02-16T01:40:06.717Z,6.59
2019-02-16T01:41:06.735Z,6.62
2019-02-16T01:42:06.748Z,6.66
2019-02-16T01:43:06.764Z,6.57
2019-02-16T01:44:06.773Z,6.60
2019-02-16T01:45:06.789Z,6.62
2019-02-16T01:46:06.800Z,6.45
2019-02-16T01:47:06.823Z,6.41
2019-02-16T01:48:06.823Z,6.46
2019-02-16T01:49:06.844Z,6.44
2019-02-16T01:50:06.853Z,6.49
2019-02-16T01:51:06.870Z,6.51
2019-02-16T01:52:06.887Z,6.51
2019-02-16T01:53:06.911Z,6.62
2019-02-16T01:54:06.927Z,6.51
2019-02-16T01:55:06.940Z,6.49
2019-02-16T01:56:06.958Z,6.39
2019-02-16T01:57:06.981Z,6.35
2019-02-16T01:58:06.987Z,6.22
2019-02-16T01:59:07.008Z,6.22
2019-02-16T02:00:07.018Z,6.24
2019-02-16T02:01:07.041Z,6.17
2019-02-16T02:02:07.052Z,6.09
2019-02-16T02:03:07.070Z,6.08
2019-02-16T02:04:07.080Z,5.90
2019-02-16T02:05:07.096Z,5.86
2019-02-16T02:06:07.310Z,5.93
2019-02-16T02:07:07.127Z,5.76
2019-02-16T02:08:07.145Z,5.66
2019-02-16T02:09:07.161Z,5.66
2019-02-16T02:10:07.173Z,5.72
2019-02-16T02:11:07.191Z,5.56
2019-02-16T02:12:07.202Z,5.53
2019-02-16T02:13:07.219Z,5.53
2019-02-16T02:14:07.241Z,5.54
2019-02-16T02:15:07.255Z,5.62
2019-02-16T02:16:07.262Z,5.79
2019-02-16T02:17:07.277Z,5.86
2019-02-16T02:18:07.292Z,6.08
2019-02-16T02:19:07.308Z,6.24
2019-02-16T02:20:07.327Z,6.36
2019-02-16T02:21:07.345Z,6.42
2019-02-16T02:22:07.370Z,6.48
2019-02-16T02:23:07.373Z,6.46
2019-02-16T02:24:07.384Z,6.46
2019-02-16T02:25:07.400Z,6.42
2019-02-16T02:26:07.418Z,6.45
2019-02-16T02:27:07.439Z,6.48
2019-02-16T02:28:07.446Z,6.27
2019-02-16T02:29:07.465Z,6.42
2019-02-16T02:30:07.479Z,6.33
2019-02-16T02:31:07.497Z,6.30
2019-02-16T02:32:07.506Z,6.30
2019-02-16T02:33:07.522Z,6.35
2019-02-16T02:34:07.537Z,6.28
2019-02-16T02:35:07.558Z,6.39
2019-02-16T02:36:07.576Z,6.45
2019-02-16T02:37:07.585Z,6.52
2019-02-16T02:38:07.607Z,6.51
2019-02-16T02:39:07.623Z,6.62
2019-02-16T02:40:07.631Z,6.49
2019-02-16T02:41:07.650Z,6.63
2019-02-16T02:42:07.661Z,6.64
2019-02-16T02:43:07.678Z,6.57
2019-02-16T02:44:07.698Z,6.57
2019-02-16T02:45:07.707Z,6.48
2019-02-16T02:46:07.718Z,6.44
2019-02-16T02:47:07.737Z,6.39
2019-02-16T02:48:07.753Z,6.30
2019-02-16T02:49:07.765Z,6.19
2019-02-16T02:50:07.780Z,6.12
2019-02-16T02:51:07.797Z,6.11
2019-02-16T02:52:07.816Z,5.91
2019-02-16T02:53:07.824Z,5.83
2019-02-16T02:54:07.839Z,5.75
2019-02-16T02:55:07.866Z,5.59
2019-02-16T02:56:07.873Z,5.57
2019-02-16T02:57:07.885Z,5.54
2019-02-16T02:58:07.904Z,5.54
2019-02-16T02:59:07.922Z,5.47
2019-02-16T03:00:07.931Z,5.39
2019-02-16T03:01:07.946Z,5.43
2019-02-16T03:02:07.970Z,5.30
2019-02-16T03:03:07.980Z,5.35
2019-02-16T03:04:07.993Z,5.18
2019-02-16T03:05:08.010Z,5.21
2019-02-16T03:06:08.023Z,5.17
2019-02-16T03:07:08.041Z,5.18
2019-02-16T03:08:08.056Z,5.26
2019-02-16T03:09:08.067Z,5.30
2019-02-16T03:10:08.087Z,5.32
2019-02-16T03:11:08.101Z,5.32
2019-02-16T03:12:08.121Z,5.35
2019-02-16T03:13:08.138Z,5.39
2019-02-16T03:14:08.147Z,5.39
2019-02-16T03:15:08.170Z,5.38
2019-02-16T03:16:08.188Z,5.41
2019-02-16T03:17:08.188Z,5.38
2019-02-16T03:18:08.205Z,5.38
2019-02-16T03:19:08.224Z,5.38
2019-02-16T03:20:08.239Z,5.38
2019-02-16T03:21:08.254Z,5.32
2019-02-16T03:22:08.267Z,5.32
2019-02-16T03:23:08.289Z,5.18
2019-02-16T03:24:08.299Z,5.21
2019-02-16T03:25:08.314Z,5.12
2019-02-16T03:26:08.336Z,5.14
2019-02-16T03:27:08.344Z,5.11
2019-02-16T03:28:08.358Z,5.14
2019-02-16T03:29:08.370Z,5.18
2019-02-16T03:30:08.387Z,5.33
2019-02-16T03:31:08.401Z,5.14
2019-02-16T03:32:08.422Z,5.02
2019-02-16T03:33:08.439Z,5.02
2019-02-16T03:34:08.449Z,4.92
2019-02-16T03:35:08.462Z,4.97
2019-02-16T03:36:08.476Z,5.04
2019-02-16T03:37:08.489Z,5.02
2019-02-16T03:38:08.508Z,5.04
2019-02-16T03:39:08.522Z,5.00
2019-02-16T03:40:08.537Z,5.00
2019-02-16T03:41:08.555Z,5.05
2019-02-16T03:42:08.565Z,5.04
2019-02-16T03:43:08.584Z,4.97
2019-02-16T03:44:08.596Z,4.84
2019-02-16T03:45:08.611Z,4.94
2019-02-16T03:46:08.627Z,4.87
2019-02-16T03:47:08.645Z,4.78
2019-02-16T03:48:08.659Z,4.82
2019-02-16T03:49:08.671Z,4.77
2019-02-16T03:50:08.683Z,4.84
2019-02-16T03:51:08.701Z,4.84
2019-02-16T03:52:13.780Z,4.86
2019-02-16T03:53:08.730Z,4.77
2019-02-16T03:54:08.751Z,4.87
2019-02-16T03:55:08.761Z,4.73
2019-02-16T03:56:08.774Z,4.77
2019-02-16T03:57:08.789Z,4.75
2019-02-16T03:58:08.804Z,4.80
2019-02-16T03:59:08.847Z,4.78
2019-02-16T04:00:08.836Z,4.74
2019-02-16T04:01:08.847Z,4.82
2019-02-16T04:02:08.865Z,4.80
2019-02-16T04:03:08.877Z,4.74
2019-02-16T04:04:09.144Z,4.82
2019-02-16T04:05:08.906Z,4.80
2019-02-16T04:06:08.926Z,4.86
2019-02-16T04:07:08.938Z,4.96
2019-02-16T04:08:08.956Z,5.14
2019-02-16T04:09:08.970Z,5.15
2019-02-16T04:10:08.988Z,5.11
2019-02-16T04:11:08.995Z,5.15
2019-02-16T04:12:09.012Z,5.07
2019-02-16T04:13:09.024Z,5.00
2019-02-16T04:14:09.045Z,4.97
2019-02-16T04:15:09.055Z,4.78
2019-02-16T04:16:09.059Z,4.80
2019-02-16T04:17:09.074Z,4.66
2019-02-16T04:18:09.087Z,4.63
2019-02-16T04:19:09.104Z,4.58
2019-02-16T04:20:09.127Z,4.44
2019-02-16T04:21:09.132Z,4.38
2019-02-16T04:22:09.153Z,4.32
2019-02-16T04:23:09.171Z,4.32
2019-02-16T04:24:09.177Z,4.30
2019-02-16T04:25:09.211Z,4.28
2019-02-16T04:26:09.218Z,4.38
2019-02-16T04:27:09.222Z,4.44
2019-02-16T04:28:09.244Z,4.41
2019-02-16T04:29:09.251Z,4.49
2019-02-16T04:30:09.263Z,4.53
2019-02-16T04:31:09.280Z,4.60
2019-02-16T04:32:09.293Z,4.63
2019-02-16T04:33:09.314Z,4.59
2019-02-16T04:34:09.323Z,4.60
2019-02-16T04:35:09.336Z,4.59
2019-02-16T04:36:09.351Z,4.50
2019-02-16T04:37:09.366Z,4.42
2019-02-16T04:38:09.382Z,4.38
2019-02-16T04:39:09.401Z,4.24
2019-02-16T04:40:09.415Z,4.32
2019-02-16T04:41:09.432Z,4.23
2019-02-16T04:42:09.437Z,4.32
2019-02-16T04:43:09.452Z,4.42
2019-02-16T04:44:09.470Z,4.34
2019-02-16T04:45:09.487Z,4.50
2019-02-16T04:46:09.494Z,4.55
2019-02-16T04:47:09.512Z,4.59
2019-02-16T04:48:09.524Z,4.63
2019-02-16T04:49:09.556Z,4.62
2019-02-16T04:50:09.553Z,4.44
2019-02-16T04:51:09.570Z,4.38
2019-02-16T04:52:09.593Z,4.37
2019-02-16T04:53:09.596Z,4.35
2019-02-16T04:54:09.620Z,4.38
2019-02-16T04:55:09.629Z,4.50
2019-02-16T04:56:09.643Z,4.48
2019-02-16T04:57:09.661Z,4.48
2019-02-16T04:58:09.671Z,4.50
2019-02-16T04:59:09.698Z,4.49
2019-02-16T05:00:09.706Z,4.48
2019-02-16T05:01:09.713Z,4.41
2019-02-16T05:02:09.729Z,4.44
2019-02-16T05:03:09.746Z,4.45
2019-02-16T05:04:09.768Z,4.53
2019-02-16T05:05:09.770Z,4.52
2019-02-16T05:06:09.788Z,4.52
2019-02-16T05:07:09.808Z,4.48
2019-02-16T05:08:09.819Z,4.56
2019-02-16T05:09:09.830Z,4.53
2019-02-16T05:10:09.843Z,4.44
2019-02-16T05:11:09.858Z,4.42
2019-02-16T05:12:09.872Z,4.44
2019-02-16T05:13:09.888Z,4.49
2019-02-16T05:14:09.901Z,4.50
2019-02-16T05:15:09.921Z,4.53
2019-02-16T05:16:09.932Z,4.44
2019-02-16T05:17:09.945Z,4.44
2019-02-16T05:18:09.958Z,4.45
2019-02-16T05:19:09.973Z,4.48
2019-02-16T05:20:09.989Z,4.42
2019-02-16T05:21:10.000Z,4.50
2019-02-16T05:22:10.016Z,4.48
2019-02-16T05:23:10.030Z,4.40
2019-02-16T05:24:10.045Z,4.42
2019-02-16T05:25:10.064Z,4.41
2019-02-16T05:26:10.073Z,4.40
2019-02-16T05:27:10.087Z,4.48
2019-02-16T05:28:10.101Z,4.38
2019-02-16T05:29:10.120Z,4.42
2019-02-16T05:30:10.143Z,4.37
2019-02-16T05:31:10.156Z,4.35
2019-02-16T05:32:10.162Z,4.26
2019-02-16T05:33:10.172Z,4.22
2019-02-16T05:34:10.193Z,4.05
2019-02-16T05:35:10.210Z,4.08
2019-02-16T05:36:10.215Z,4.08
2019-02-16T05:37:10.235Z,4.02
2019-02-16T05:38:10.244Z,3.92
2019-02-16T05:39:10.262Z,4.06
2019-02-16T05:40:10.275Z,3.96
2019-02-16T05:41:10.290Z,4.01
2019-02-16T05:42:10.302Z,3.98
2019-02-16T05:43:10.315Z,3.94
2019-02-16T05:44:10.338Z,3.81
2019-02-16T05:45:10.346Z,3.84
2019-02-16T05:46:10.358Z,3.84
2019-02-16T05:47:10.378Z,3.84
2019-02-16T05:48:10.395Z,3.83
2019-02-16T05:49:10.400Z,3.88
2019-02-16T05:50:10.434Z,3.91
2019-02-16T05:51:10.432Z,3.94
2019-02-16T05:52:10.445Z,3.95
2019-02-16T05:53:10.459Z,3.99
2019-02-16T05:54:10.471Z,4.04
2019-02-16T05:55:10.490Z,4.02
2019-02-16T05:56:10.513Z,4.06
2019-02-16T05:57:10.515Z,3.99
2019-02-16T05:58:10.530Z,4.06
2019-02-16T05:59:10.549Z,3.99
2019-02-16T06:00:10.561Z,3.94
2019-02-16T06:01:10.572Z,3.95
2019-02-16T06:02:10.588Z,4.05
2019-02-16T06:03:10.608Z,4.05
2019-02-16T06:04:10.616Z,4.05
2019-02-16T06:05:10.628Z,3.99
2019-02-16T06:06:10.651Z,4.01
2019-02-16T06:07:10.654Z,3.88
2019-02-16T06:08:10.669Z,3.99
2019-02-16T06:09:10.682Z,3.95
2019-02-16T06:10:10.697Z,3.94
2019-02-16T06:11:10.723Z,3.95
2019-02-16T06:12:10.731Z,3.88
2019-02-16T06:13:10.739Z,3.92
2019-02-16T06:14:10.759Z,3.95
2019-02-16T06:15:10.780Z,3.94
2019-02-16T06:16:10.782Z,3.96
2019-02-16T06:17:10.805Z,3.96
2019-02-16T06:18:10.812Z,3.92
2019-02-16T06:19:11.075Z,3.98
2019-02-16T06:20:10.843Z,3.94
2019-02-16T06:21:10.850Z,3.88
2019-02-16T06:22:10.876Z,3.94
2019-02-16T06:23:10.883Z,3.99
2019-02-16T06:24:10.896Z,3.98
2019-02-16T06:25:10.909Z,3.95
2019-02-16T06:26:10.923Z,3.96
2019-02-16T06:27:10.936Z,3.84
2019-02-16T06:28:10.951Z,3.92
2019-02-16T06:29:10.965Z,3.83
2019-02-16T06:30:10.979Z,3.73
2019-02-16T06:31:10.994Z,3.59
2019-02-16T06:32:11.009Z,3.60
2019-02-16T06:33:11.024Z,3.74
2019-02-16T06:34:11.034Z,3.65
2019-02-16T06:35:11.047Z,3.86
2019-02-16T06:36:11.061Z,3.81
2019-02-16T06:37:11.074Z,3.87
2019-02-16T06:38:11.088Z,3.81
2019-02-16T06:39:11.106Z,3.88
2019-02-16T06:40:11.120Z,3.86
2019-02-16T06:41:11.130Z,3.83
2019-02-16T06:42:11.145Z,3.95
2019-02-16T06:43:11.161Z,3.88
2019-02-16T06:44:11.183Z,3.95
2019-02-16T06:45:11.186Z,3.94
2019-02-16T06:46:11.200Z,3.92
2019-02-16T06:47:11.216Z,3.96
2019-02-16T06:48:11.229Z,3.83
2019-02-16T06:49:11.249Z,3.92
2019-02-16T06:50:11.264Z,3.92
2019-02-16T06:51:11.271Z,3.80
2019-02-16T06:52:11.290Z,3.78
2019-02-16T06:53:13.506Z,3.73
2019-02-16T06:54:11.319Z,3.84
2019-02-16T06:55:11.328Z,3.77
2019-02-16T06:56:11.347Z,3.73
2019-02-16T06:57:11.352Z,3.53
2019-02-16T06:58:11.375Z,3.59
2019-02-16T06:59:11.383Z,3.48
2019-02-16T07:00:11.395Z,3.47
2019-02-16T07:01:11.409Z,3.47
2019-02-16T07:02:11.425Z,3.51
2019-02-16T07:03:11.439Z,3.47
2019-02-16T07:04:11.453Z,3.53
2019-02-16T07:05:11.464Z,3.53
2019-02-16T07:06:11.478Z,3.51
2019-02-16T07:07:11.500Z,3.51
2019-02-16T07:08:11.507Z,3.63
2019-02-16T07:09:11.522Z,3.63
2019-02-16T07:10:11.589Z,3.70
2019-02-16T07:11:11.551Z,3.77
2019-02-16T07:12:11.565Z,3.68
2019-02-16T07:13:11.579Z,3.69
2019-02-16T07:14:11.590Z,3.63
2019-02-16T07:15:11.613Z,3.50
2019-02-16T07:16:11.621Z,3.68
2019-02-16T07:17:11.632Z,3.62
2019-02-16T07:18:11.648Z,3.60
2019-02-16T07:19:11.663Z,3.69
2019-02-16T07:20:11.683Z,3.58
2019-02-16T07:21:11.690Z,3.56
2019-02-16T07:22:11.711Z,3.55
2019-02-16T07:23:11.723Z,3.55
2019-02-16T07:24:11.738Z,3.68
2019-02-16T07:25:11.745Z,3.58
2019-02-16T07:26:11.761Z,3.55
2019-02-16T07:27:11.772Z,3.68
2019-02-16T07:28:11.789Z,3.53
2019-02-16T07:29:11.802Z,3.59
2019-02-16T07:30:11.815Z,3.55
2019-02-16T07:31:11.830Z,3.48
2019-02-16T07:32:11.849Z,3.51
2019-02-16T07:33:11.855Z,3.70
2019-02-16T07:34:11.870Z,3.70
2019-02-16T07:35:11.887Z,3.81
2019-02-16T07:36:11.901Z,3.83
2019-02-16T07:37:11.915Z,3.84
2019-02-16T07:38:11.928Z,3.96
2019-02-16T07:39:11.950Z,3.94
2019-02-16T07:40:11.955Z,3.94
2019-02-16T07:41:11.969Z,3.99
2019-02-16T07:42:11.983Z,3.95
2019-02-16T07:43:12.000Z,3.98
2019-02-16T07:44:12.014Z,4.02
2019-02-16T07:45:12.031Z,3.92
2019-02-16T07:46:12.046Z,3.86
2019-02-16T07:47:12.056Z,3.95
2019-02-16T07:48:12.072Z,4.06
2019-02-16T07:49:12.090Z,4.04
2019-02-16T07:50:12.096Z,4.22
2019-02-16T07:51:12.111Z,4.28
2019-02-16T07:52:12.129Z,4.34
2019-02-16T07:53:12.145Z,4.30
2019-02-16T07:54:12.162Z,4.35
2019-02-16T07:55:12.168Z,4.44
2019-02-16T07:56:12.185Z,4.37
2019-02-16T07:57:12.197Z,4.35
2019-02-16T07:58:12.210Z,4.44
2019-02-16T07:59:12.227Z,4.48
2019-02-16T08:00:12.243Z,4.48
2019-02-16T08:01:12.256Z,4.56
2019-02-16T08:02:12.268Z,4.68
2019-02-16T08:03:12.285Z,4.71
2019-02-16T08:04:12.300Z,4.77
2019-02-16T08:05:12.313Z,4.74
2019-02-16T08:06:12.330Z,4.97
2019-02-16T08:07:12.346Z,5.04
2019-02-16T08:08:12.358Z,5.07
2019-02-16T08:09:12.369Z,5.11
2019-02-16T08:10:12.395Z,5.04
2019-02-16T08:11:12.402Z,5.05
2019-02-16T08:12:12.414Z,4.99
2019-02-16T08:13:12.434Z,4.99
2019-02-16T08:14:12.450Z,5.04
2019-02-16T08:15:12.459Z,5.12
2019-02-16T08:16:12.474Z,5.07
2019-02-16T08:17:12.489Z,5.32
2019-02-16T08:18:12.500Z,5.30
2019-02-16T08:19:12.557Z,5.29
2019-02-16T08:20:12.532Z,5.36
2019-02-16T08:21:12.547Z,5.57
2019-02-16T08:22:12.562Z,5.72
2019-02-16T08:23:12.581Z,5.68
2019-02-16T08:24:12.590Z,5.62
2019-02-16T08:25:12.604Z,5.76
2019-02-16T08:26:12.620Z,5.82
2019-02-16T08:27:12.633Z,5.86
2019-02-16T08:28:12.654Z,5.87
2019-02-16T08:29:12.664Z,5.87
2019-02-16T08:30:12.677Z,5.80
2019-02-16T08:31:12.692Z,5.90
2019-02-16T08:32:12.709Z,5.93
2019-02-16T08:33:12.725Z,5.86
2019-02-16T08:34:12.739Z,5.97
2019-02-16T08:35:12.754Z,5.91
2019-02-16T08:36:12.767Z,5.97
2019-02-16T08:37:12.783Z,6.11
2019-02-16T08:38:12.801Z,6.04
2019-02-16T08:39:12.817Z,6.07
2019-02-16T08:40:12.833Z,6.04
2019-02-16T08:41:12.841Z,6.17
2019-02-16T08:42:12.864Z,6.20
2019-02-16T08:43:12.875Z,6.20
2019-02-16T08:44:12.890Z,6.20
2019-02-16T08:45:12.908Z,6.20
2019-02-16T08:46:12.919Z,6.27
2019-02-16T08:47:12.934Z,6.39
2019-02-16T08:48:12.954Z,6.22
2019-02-16T08:49:12.962Z,6.27
2019-02-16T08:50:12.983Z,6.41
2019-02-16T08:51:12.996Z,6.48
2019-02-16T08:52:13.009Z,6.44
2019-02-16T08:53:13.024Z,6.60
2019-02-16T08:54:13.048Z,6.54
2019-02-16T08:55:13.055Z,6.75
2019-02-16T08:56:13.077Z,6.77
2019-02-16T08:57:13.085Z,6.93
2019-02-16T08:58:13.104Z,7.00
2019-02-16T08:59:13.119Z,6.95
2019-02-16T09:00:13.133Z,7.11
2019-02-16T09:01:13.149Z,7.18
2019-02-16T09:02:13.172Z,7.28
2019-02-16T09:03:13.181Z,7.33
2019-02-16T09:04:13.195Z,7.51
2019-02-16T09:05:13.210Z,7.67
2019-02-16T09:06:13.229Z,7.75
2019-02-16T09:07:13.244Z,7.80
2019-02-16T09:08:13.263Z,7.97
2019-02-16T09:09:13.273Z,8.01
2019-02-16T09:10:13.291Z,8.16
2019-02-16T09:11:13.306Z,8.34
2019-02-16T09:12:13.323Z,8.51
2019-02-16T09:13:13.342Z,8.56
2019-02-16T09:14:13.354Z,8.70
2019-02-16T09:15:13.370Z,8.71
2019-02-16T09:16:13.387Z,8.84
2019-02-16T09:17:13.567Z,8.81
2019-02-16T09:18:13.416Z,8.87
2019-02-16T09:19:13.433Z,9.06
2019-02-16T09:20:13.456Z,8.97
2019-02-16T09:21:15.056Z,9.08
2019-02-16T09:22:13.686Z,9.16
2019-02-16T09:23:13.499Z,9.21
2019-02-16T09:24:13.517Z,9.34
2019-02-16T09:25:13.536Z,9.25
2019-02-16T09:26:13.553Z,9.39
2019-02-16T09:27:13.566Z,9.34
2019-02-16T09:28:13.581Z,9.31
2019-02-16T09:29:13.596Z,9.46
2019-02-16T09:30:13.615Z,9.43
2019-02-16T09:31:13.633Z,9.43
2019-02-16T09:32:13.652Z,9.54
2019-02-16T09:33:13.673Z,9.54
2019-02-16T09:34:13.682Z,9.51
2019-02-16T09:35:13.699Z,9.58
2019-02-16T09:36:13.714Z,9.58
2019-02-16T09:37:13.732Z,9.73
2019-02-16T09:38:13.756Z,9.69
2019-02-16T09:39:13.767Z,9.69
2019-02-16T09:40:13.784Z,9.73
2019-02-16T09:41:13.798Z,9.79
2019-02-16T09:42:13.818Z,9.83
2019-02-16T09:43:13.832Z,9.95
2019-02-16T09:44:13.856Z,9.94
2019-02-16T09:45:13.869Z,10.05
2019-02-16T09:46:13.888Z,10.07
2019-02-16T09:47:13.901Z,10.17
2019-02-16T09:48:13.923Z,10.33
2019-02-16T09:49:13.938Z,10.33
2019-02-16T09:50:13.955Z,10.40
2019-02-16T09:51:13.970Z,10.38
2019-02-16T09:52:13.990Z,10.41
2019-02-16T09:53:14.005Z,10.51
2019-02-16T09:54:14.030Z,10.51
2019-02-16T09:55:14.042Z,10.57
2019-02-16T09:56:14.057Z,10.61
2019-02-16T09:57:14.076Z,10.69
2019-02-16T09:58:14.095Z,10.64
2019-02-16T09:59:14.112Z,10.74
2019-02-16T10:00:14.133Z,10.82
2019-02-16T10:01:14.146Z,10.94
2019-02-16T10:02:14.164Z,10.93
2019-02-16T10:03:14.220Z,10.94
2019-02-16T10:04:14.198Z,11.02
2019-02-16T10:05:14.216Z,11.04
2019-02-16T10:06:14.233Z,11.05
2019-02-16T10:07:14.251Z,11.15
2019-02-16T10:08:14.270Z,11.17
2019-02-16T10:09:14.288Z,11.17
2019-02-16T10:10:14.313Z,11.19
2019-02-16T10:11:14.325Z,11.25
2019-02-16T10:12:14.341Z,11.25
2019-02-16T10:13:14.357Z,11.35
2019-02-16T10:14:14.376Z,11.33
2019-02-16T10:15:14.395Z,11.37
2019-02-16T10:16:14.415Z,11.43
2019-02-16T10:17:14.489Z,11.52
2019-02-16T10:18:14.453Z,11.63
2019-02-16T10:19:14.469Z,11.69
2019-02-16T10:20:14.484Z,11.70
2019-02-16T10:21:14.504Z,11.77
2019-02-16T10:22:14.521Z,11.77
2019-02-16T10:23:14.538Z,11.84
2019-02-16T10:24:17.826Z,11.88
2019-02-16T10:25:14.577Z,11.99
2019-02-16T10:26:14.593Z,11.90
2019-02-16T10:27:14.612Z,12.06
2019-02-16T10:28:14.637Z,11.99
2019-02-16T10:29:14.658Z,12.15
2019-02-16T10:30:14.666Z,12.12
2019-02-16T10:31:14.687Z,12.18
2019-02-16T10:32:14.711Z,12.20
2019-02-16T10:33:14.727Z,12.15
2019-02-16T10:34:14.742Z,12.21
2019-02-16T10:35:14.759Z,12.24
2019-02-16T10:36:14.786Z,12.22
2019-02-16T10:37:14.797Z,12.22
2019-02-16T10:38:14.814Z,12.42
2019-02-16T10:39:14.836Z,12.42
2019-02-16T10:40:14.860Z,12.35
2019-02-16T10:41:14.875Z,12.39
2019-02-16T10:42:14.890Z,12.43
2019-02-16T10:43:14.912Z,12.36
2019-02-16T10:44:14.927Z,12.54
2019-02-16T10:45:14.944Z,12.57
2019-02-16T10:46:14.964Z,12.53
2019-02-16T10:47:14.984Z,12.50
2019-02-16T10:48:15.002Z,12.58
2019-02-16T10:49:15.025Z,12.40
2019-02-16T10:50:15.046Z,12.46
2019-02-16T10:51:15.056Z,12.57
2019-02-16T10:52:15.078Z,12.57
2019-02-16T10:53:15.094Z,12.50
2019-02-16T10:54:15.115Z,12.55
2019-02-16T10:55:15.133Z,12.54
2019-02-16T10:56:15.150Z,12.50
2019-02-16T10:57:15.171Z,12.55
2019-02-16T10:58:15.190Z,12.60
2019-02-16T10:59:15.210Z,12.54
2019-02-16T11:00:15.226Z,12.54
2019-02-16T11:01:15.245Z,12.62
2019-02-16T11:02:15.266Z,12.61
2019-02-16T11:03:15.288Z,12.75
2019-02-16T11:04:15.301Z,12.70
2019-02-16T11:05:15.319Z,12.79
2019-02-16T11:06:15.341Z,12.85
2019-02-16T11:07:17.316Z,12.95
2019-02-16T11:08:15.376Z,12.94
2019-02-16T11:09:15.396Z,12.90
2019-02-16T11:10:15.416Z,12.83
2019-02-16T11:11:15.435Z,12.75
2019-02-16T11:12:15.454Z,12.75
2019-02-16T11:13:15.473Z,12.73
2019-02-16T11:14:15.498Z,12.73
2019-02-16T11:15:15.559Z,12.85
2019-02-16T11:16:15.534Z,12.87
2019-02-16T11:17:15.548Z,12.83
2019-02-16T11:18:15.564Z,12.83
2019-02-16T11:19:15.598Z,12.93
2019-02-16T11:20:15.607Z,12.95
2019-02-16T11:21:15.625Z,12.86
2019-02-16T11:22:15.640Z,12.97
2019-02-16T11:23:15.659Z,12.94
2019-02-16T11:24:15.682Z,13.12
2019-02-16T11:25:15.706Z,13.09
2019-02-16T11:26:15.725Z,13.00
2019-02-16T11:27:15.744Z,13.08
2019-02-16T11:28:15.763Z,13.18
2019-02-16T11:29:15.775Z,13.20
2019-02-16T11:30:15.795Z,13.19
2019-02-16T11:31:15.815Z,13.18
2019-02-16T11:32:15.832Z,13.20
2019-02-16T11:33:15.860Z,13.27
2019-02-16T11:34:15.869Z,13.27
2019-02-16T11:35:15.897Z,13.37
2019-02-16T11:36:15.910Z,13.31
2019-02-16T11:37:15.927Z,13.31
2019-02-16T11:38:16.444Z,13.33
2019-02-16T11:39:15.967Z,13.37
2019-02-16T11:40:15.985Z,13.41
2019-02-16T11:41:18.960Z,13.41
2019-02-16T11:42:16.025Z,13.33
2019-02-16T11:43:16.044Z,13.38
2019-02-16T11:44:16.063Z,13.52
2019-02-16T11:45:16.084Z,13.31
2019-02-16T11:46:16.102Z,13.50
2019-02-16T11:47:16.119Z,13.60
2019-02-16T11:48:16.141Z,13.68
2019-02-16T11:49:16.160Z,13.90
2019-02-16T11:50:16.178Z,14.17
2019-02-16T11:51:16.197Z,14.12
2019-02-16T11:52:16.217Z,14.22
2019-02-16T11:53:16.244Z,14.26
2019-02-16T11:54:16.258Z,14.14
2019-02-16T11:55:16.278Z,14.11
2019-02-16T11:56:16.296Z,14.04
2019-02-16T11:57:16.314Z,14.03
2019-02-16T11:58:16.345Z,13.96
2019-02-16T11:59:16.361Z,13.99
2019-02-16T12:00:16.377Z,13.97
2019-02-16T12:01:16.399Z,13.99
2019-02-16T12:02:16.415Z,14.00
2019-02-16T12:03:16.434Z,13.93
2019-02-16T12:04:17.276Z,13.86
2019-02-16T12:05:16.473Z,13.95
2019-02-16T12:06:16.495Z,13.97
2019-02-16T12:07:16.516Z,14.04
2019-02-16T12:08:16.542Z,14.05
2019-02-16T12:09:16.566Z,14.00
2019-02-16T12:10:16.583Z,13.99
2019-02-16T12:11:16.593Z,13.97
2019-02-16T12:12:16.614Z,13.97
2019-02-16T12:13:16.641Z,13.96
2019-02-16T12:14:17.933Z,13.89
2019-02-16T12:15:16.684Z,13.93
2019-02-16T12:16:16.693Z,13.93
2019-02-16T12:17:16.719Z,13.86
2019-02-16T12:18:16.736Z,13.95
2019-02-16T12:19:16.752Z,14.07
2019-02-16T12:20:16.773Z,13.97
2019-02-16T12:21:16.796Z,14.05
2019-02-16T12:22:16.816Z,14.08
2019-02-16T12:23:16.839Z,14.14
2019-02-16T12:24:16.853Z,14.14
2019-02-16T12:25:16.878Z,14.15
2019-02-16T12:26:16.894Z,14.18
2019-02-16T12:27:16.910Z,14.10
2019-02-16T12:28:16.936Z,14.15
2019-02-16T12:29:16.951Z,14.18
2019-02-16T12:30:16.971Z,14.14
2019-02-16T12:31:16.991Z,14.17
2019-02-16T12:32:17.010Z,14.12
2019-02-16T12:33:17.031Z,14.18
2019-02-16T12:34:17.054Z,14.22
2019-02-16T12:35:17.067Z,14.17
2019-02-16T12:36:17.150Z,14.26
2019-02-16T12:37:17.106Z,14.37
2019-02-16T12:38:17.126Z,14.30
2019-02-16T12:39:17.155Z,14.30
2019-02-16T12:40:17.169Z,14.44
2019-02-16T12:41:17.194Z,14.43
2019-02-16T12:42:17.208Z,14.48
2019-02-16T12:43:17.227Z,14.55
2019-02-16T12:44:17.246Z,14.47
2019-02-16T12:45:17.265Z,14.50
2019-02-16T12:46:17.286Z,14.48
2019-02-16T12:47:17.308Z,14.53
2019-02-16T12:48:17.328Z,14.53
2019-02-16T12:49:17.344Z,14.51
2019-02-16T12:50:17.369Z,14.53
2019-02-16T12:51:17.384Z,14.50
2019-02-16T12:52:17.405Z,14.47
2019-02-16T12:53:17.424Z,14.53
2019-02-16T12:54:17.445Z,14.62
2019-02-16T12:55:17.467Z,14.51
2019-02-16T12:56:17.486Z,14.65
2019-02-16T12:57:17.522Z,14.60
2019-02-16T12:58:17.526Z,14.60
2019-02-16T12:59:17.545Z,14.68
2019-02-16T13:00:17.571Z,14.62
2019-02-16T13:01:17.584Z,14.63
2019-02-16T13:02:17.611Z,14.70
2019-02-16T13:03:17.629Z,14.72
2019-02-16T13:04:17.643Z,14.77
2019-02-16T13:05:17.663Z,14.77
2019-02-16T13:06:17.682Z,14.78
2019-02-16T13:07:17.722Z,14.86
2019-02-16T13:08:17.727Z,14.78
2019-02-16T13:09:17.763Z,14.96
2019-02-16T13:10:17.765Z,15.04
2019-02-16T13:11:17.796Z,15.06